createdAt,value
2018-07-10T00:02:21.779Z,2.23
2018-07-10T00:08:17.420Z,2.60
2018-07-10T00:14:33.605Z,1.83
2018-07-10T00:17:04.545Z,1.53
2018-07-10T00:19:37.332Z,1.47
2018-07-10T00:22:11.241Z,1.87
2018-07-10T00:24:54.822Z,1.47
2018-07-10T00:27:26.628Z,2.27
2018-07-10T00:30:00.914Z,1.67
2018-07-10T00:32:38.749Z,1.43
2018-07-10T00:35:16.447Z,1.20
2018-07-10T00:39:09.163Z,1.63
2018-07-10T00:41:42.494Z,1.30
2018-07-10T00:44:14.459Z,2.03
2018-07-10T00:46:47.957Z,1.40
2018-07-10T00:49:20.872Z,1.43
2018-07-10T00:51:52.613Z,1.73
2018-07-10T00:54:24.253Z,1.37
2018-07-10T00:56:58.292Z,1.30
2018-07-10T00:59:42.295Z,1.20
2018-07-10T01:02:13.827Z,1.10
2018-07-10T01:04:43.681Z,1.30
2018-07-10T01:07:17.126Z,1.13
2018-07-10T01:09:55.539Z,1.70
2018-07-10T01:12:26.969Z,1.40
2018-07-10T01:15:04.230Z,1.10
2018-07-10T01:20:56.184Z,1.10
2018-07-10T01:23:30.704Z,1.00
2018-07-10T01:26:02.979Z,1.40
2018-07-10T01:28:33.295Z,1.80
2018-07-10T01:31:04.541Z,1.30
2018-07-10T01:33:36.096Z,1.63
2018-07-10T01:36:17.074Z,1.33
2018-07-10T01:38:47.906Z,1.43
2018-07-10T01:41:15.948Z,1.10
2018-07-10T01:43:47.845Z,1.10
2018-07-10T01:55:19.659Z,1.47
2018-07-10T01:57:56.137Z,1.43
2018-07-10T02:00:48.778Z,1.03
2018-07-10T02:03:37.842Z,1.40
2018-07-10T02:06:09.504Z,2.30
2018-07-10T02:08:41.355Z,1.40
2018-07-10T02:11:23.875Z,1.50
2018-07-10T02:14:04.610Z,1.53
2018-07-10T02:16:38.950Z,1.97
2018-07-10T02:19:13.380Z,2.13
2018-07-10T02:21:55.987Z,1.70
2018-07-10T02:24:32.246Z,1.30
2018-07-10T02:27:02.880Z,1.53
2018-07-10T02:29:35.253Z,1.70
2018-07-10T02:32:21.968Z,1.27
2018-07-10T02:39:29.504Z,1.37
2018-07-10T02:42:01.856Z,2.07
2018-07-10T02:44:37.411Z,1.40
2018-07-10T02:47:21.141Z,1.50
2018-07-10T02:50:17.480Z,1.17
2018-07-10T02:52:48.733Z,1.47
2018-07-10T02:58:00.618Z,1.50
2018-07-10T03:00:35.031Z,1.43
2018-07-10T03:03:14.431Z,1.70
2018-07-10T03:05:46.559Z,1.50
2018-07-10T03:08:27.483Z,1.97
2018-07-10T03:14:11.194Z,1.87
2018-07-10T03:16:46.741Z,1.63
2018-07-10T03:19:21.676Z,1.67
2018-07-10T03:21:53.939Z,1.50
2018-07-10T03:24:25.599Z,1.20
2018-07-10T03:26:58.592Z,1.97
2018-07-10T03:29:28.804Z,1.60
2018-07-10T03:31:59.437Z,2.07
2018-07-10T03:34:30.475Z,1.50
2018-07-10T03:37:03.162Z,1.77
2018-07-10T03:39:34.096Z,1.97
2018-07-10T03:42:05.944Z,2.00
2018-07-10T03:44:36.413Z,1.50
2018-07-10T03:47:08.044Z,1.50
2018-07-10T03:49:40.172Z,1.40
2018-07-10T03:52:11.046Z,1.80
2018-07-10T03:54:44.849Z,1.30
2018-07-10T03:57:15.569Z,1.70
2018-07-10T03:59:55.543Z,1.70
2018-07-10T04:02:26.584Z,1.30
2018-07-10T04:04:57.716Z,1.70
2018-07-10T04:07:28.248Z,1.60
2018-07-10T04:09:58.987Z,1.90
2018-07-10T04:12:36.866Z,1.50
2018-07-10T04:15:07.205Z,1.77
2018-07-10T04:18:20.753Z,2.40
2018-07-10T04:21:07.460Z,1.93
2018-07-10T04:23:40.030Z,1.97
2018-07-10T04:26:21.416Z,1.60
2018-07-10T04:30:06.467Z,1.63
2018-07-10T04:32:41.427Z,2.13
2018-07-10T04:35:16.665Z,1.80
2018-07-10T04:37:51.516Z,1.70
2018-07-10T04:40:21.617Z,2.30
2018-07-10T04:43:02.592Z,2.40
2018-07-10T04:45:44.663Z,3.10
2018-07-10T04:48:24.895Z,2.27
2018-07-10T04:51:04.274Z,2.20
2018-07-10T04:54:47.618Z,2.50
2018-07-10T04:57:22.965Z,1.80
2018-07-10T04:59:53.169Z,2.23
2018-07-10T05:02:20.960Z,2.20
2018-07-10T05:04:48.753Z,2.80
2018-07-10T05:07:16.543Z,2.60
2018-07-10T05:09:44.264Z,3.13
2018-07-10T05:12:20.798Z,2.87
2018-07-10T05:14:54.543Z,2.93
2018-07-10T05:17:25.458Z,2.60
2018-07-10T05:19:59.879Z,3.30
2018-07-10T05:22:31.891Z,3.03
2018-07-10T05:25:02.067Z,2.50
2018-07-10T05:27:34.982Z,2.70
2018-07-10T05:30:06.501Z,3.13
2018-07-10T05:32:36.538Z,3.27
2018-07-10T05:35:09.507Z,3.10
2018-07-10T05:37:43.512Z,3.07
2018-07-10T05:43:13.185Z,3.63
2018-07-10T05:45:46.562Z,3.47
2018-07-10T05:51:26.610Z,2.57
2018-07-10T05:54:07.079Z,2.70
2018-07-10T05:56:38.108Z,3.07
2018-07-10T05:59:09.918Z,3.17
2018-07-10T06:01:46.394Z,2.70
2018-07-10T06:04:29.405Z,3.77
2018-07-10T06:07:01.655Z,4.13
2018-07-10T06:09:31.039Z,4.30
2018-07-10T06:12:08.537Z,3.40
2018-07-10T06:16:12.605Z,3.97
2018-07-10T06:24:00.251Z,3.83
2018-07-10T06:26:33.167Z,4.97
2018-07-10T06:29:09.373Z,4.40
2018-07-10T06:32:06.415Z,3.87
2018-07-10T06:34:55.982Z,4.73
2018-07-10T06:37:46.898Z,5.63
2018-07-10T06:40:22.641Z,5.53
2018-07-10T06:43:09.367Z,5.27
2018-07-10T06:56:44.554Z,5.10
2018-07-10T06:59:16.125Z,4.77
2018-07-10T07:01:57.947Z,4.90
2018-07-10T07:04:32.141Z,4.90
2018-07-10T07:08:06.455Z,5.47
2018-07-10T07:10:42.668Z,4.70
2018-07-10T07:13:17.349Z,4.90
2018-07-10T07:15:48.113Z,5.43
2018-07-10T07:18:32.096Z,5.23
2018-07-10T07:21:12.405Z,4.97
2018-07-10T07:23:45.807Z,4.70
2018-07-10T07:26:18.049Z,4.40
2018-07-10T07:28:48.991Z,5.40
2018-07-10T07:31:31.604Z,3.60
2018-07-10T07:34:15.230Z,3.10
2018-07-10T07:36:49.473Z,4.20
2018-07-10T07:39:31.759Z,4.00
2018-07-10T07:42:07.540Z,3.40
2018-07-10T07:44:40.125Z,3.63
2018-07-10T07:49:58.863Z,3.93
2018-07-10T07:52:32.401Z,3.23
2018-07-10T07:55:06.071Z,2.70
2018-07-10T07:57:37.621Z,4.00
2018-07-10T08:00:16.686Z,3.67
2018-07-10T08:03:02.917Z,3.40
2018-07-10T08:05:36.545Z,3.43
2018-07-10T08:08:23.450Z,3.10
2018-07-10T08:10:58.917Z,3.57
2018-07-10T08:13:30.870Z,3.63
2018-07-10T08:16:04.039Z,3.33
2018-07-10T08:18:35.404Z,3.77
2018-07-10T08:21:09.319Z,3.80
2018-07-10T08:23:43.669Z,3.93
2018-07-10T08:26:14.779Z,3.30
2018-07-10T08:28:47.873Z,2.70
2018-07-10T08:31:18.872Z,3.53
2018-07-10T08:33:50.643Z,3.40
2018-07-10T08:36:22.534Z,2.77
2018-07-10T08:38:52.337Z,3.60
2018-07-10T08:41:22.809Z,2.90
2018-07-10T08:43:51.121Z,3.10
2018-07-10T08:46:27.714Z,2.57
2018-07-10T08:48:57.943Z,3.17
2018-07-10T08:51:29.697Z,3.20
2018-07-10T08:53:59.200Z,2.93
2018-07-10T08:56:31.575Z,4.60
2018-07-10T08:59:02.093Z,3.67
2018-07-10T09:01:36.193Z,3.23
2018-07-10T09:04:07.052Z,2.93
2018-07-10T09:06:37.376Z,3.23
2018-07-10T09:09:10.367Z,3.50
2018-07-10T09:11:44.985Z,3.67
2018-07-10T09:14:18.489Z,3.30
2018-07-10T09:16:53.732Z,2.93
2018-07-10T09:19:28.884Z,2.23
2018-07-10T09:22:10.013Z,3.40
2018-07-10T09:25:03.904Z,2.67
2018-07-10T09:27:37.630Z,3.40
2018-07-10T09:30:08.768Z,2.50
2018-07-10T09:32:45.022Z,2.73
2018-07-10T09:35:18.533Z,2.20
2018-07-10T09:37:49.876Z,2.27
2018-07-10T09:40:22.615Z,2.20
2018-07-10T09:43:11.076Z,2.77
2018-07-10T09:45:54.470Z,2.90
2018-07-10T09:48:43.094Z,2.67
2018-07-10T09:51:14.850Z,2.00
2018-07-10T09:56:33.784Z,2.50
2018-07-10T09:59:05.079Z,2.80
2018-07-10T10:01:38.123Z,3.60
2018-07-10T10:04:10.301Z,2.40
2018-07-10T10:06:43.012Z,3.27
2018-07-10T10:09:14.302Z,2.80
2018-07-10T10:11:44.963Z,2.50
2018-07-10T10:14:17.569Z,3.30
2018-07-10T10:16:47.564Z,2.13
2018-07-10T10:19:18.928Z,2.07
2018-07-10T10:21:53.835Z,2.73
2018-07-10T10:24:25.019Z,2.70
2018-07-10T10:27:01.865Z,2.87
2018-07-10T10:29:34.042Z,3.07
2018-07-10T10:32:06.584Z,2.90
2018-07-10T10:34:39.518Z,3.87
2018-07-10T10:37:11.043Z,3.47
2018-07-10T10:39:42.931Z,3.60
2018-07-10T10:42:19.913Z,3.40
2018-07-10T10:44:54.541Z,3.87
2018-07-10T10:50:17.621Z,3.77
2018-07-10T10:52:50.522Z,4.27
2018-07-10T10:55:20.824Z,5.00
2018-07-10T11:01:10.933Z,4.03
2018-07-10T11:03:42.720Z,4.27
2018-07-10T11:06:14.243Z,3.60
2018-07-10T11:08:44.982Z,3.67
2018-07-10T11:11:16.016Z,3.43
2018-07-10T11:13:46.346Z,2.33
2018-07-10T11:16:17.095Z,2.87
2018-07-10T11:19:01.249Z,3.13
2018-07-10T11:21:44.467Z,2.73
2018-07-10T11:24:19.778Z,2.37
2018-07-10T11:26:53.601Z,2.40
2018-07-10T11:29:24.641Z,2.07
2018-07-10T11:31:57.341Z,2.07
2018-07-10T11:35:32.124Z,2.37
2018-07-10T11:38:12.219Z,2.10
2018-07-10T11:42:55.143Z,2.93
2018-07-10T11:45:26.701Z,2.90
2018-07-10T11:47:56.717Z,3.40
2018-07-10T11:50:30.518Z,2.10
2018-07-10T11:53:02.895Z,2.70
2018-07-10T11:55:35.207Z,2.40
2018-07-10T11:58:07.111Z,2.03
2018-07-10T12:00:38.882Z,2.77
2018-07-10T12:03:12.689Z,2.50
2018-07-10T12:05:45.986Z,2.70
2018-07-10T12:08:18.564Z,2.70
2018-07-10T12:11:06.271Z,2.37
2018-07-10T12:13:40.392Z,3.00
2018-07-10T12:16:12.063Z,2.70
2018-07-10T12:19:47.843Z,3.17
2018-07-10T12:22:22.138Z,2.63
2018-07-10T12:24:56.766Z,3.27
2018-07-10T12:27:27.707Z,3.10
2018-07-10T12:29:58.899Z,3.60
2018-07-10T12:32:29.564Z,2.90
2018-07-10T12:35:01.242Z,3.17
2018-07-10T12:37:31.991Z,2.20
2018-07-10T12:40:02.675Z,2.50
2018-07-10T12:42:35.695Z,2.73
2018-07-10T12:45:08.679Z,2.57
2018-07-10T12:47:39.525Z,2.47
2018-07-10T12:50:15.645Z,2.40
2018-07-10T12:52:47.747Z,2.57
2018-07-10T12:55:23.390Z,3.47
2018-07-10T12:57:57.610Z,2.80
2018-07-10T13:00:31.191Z,2.43
2018-07-10T13:03:04.093Z,2.23
2018-07-10T13:06:51.536Z,3.43
2018-07-10T13:09:22.722Z,3.73
2018-07-10T13:11:54.821Z,3.30
2018-07-10T13:14:26.798Z,3.30
2018-07-10T13:17:08.897Z,3.53
2018-07-10T13:19:42.704Z,3.50
2018-07-10T13:25:06.407Z,3.60
2018-07-10T13:27:44.851Z,4.40
2018-07-10T13:30:24.494Z,3.80
2018-07-10T13:38:41.090Z,3.90
2018-07-10T13:44:10.123Z,4.67
2018-07-10T13:46:51.728Z,5.33
2018-07-10T13:49:23.500Z,5.00
2018-07-10T13:51:51.733Z,4.73
2018-07-10T13:54:19.608Z,5.67
2018-07-10T13:56:47.384Z,5.50
2018-07-10T13:59:16.870Z,5.20
2018-07-10T14:01:44.613Z,5.00
2018-07-10T14:04:12.433Z,5.30
2018-07-10T14:06:40.396Z,5.10
2018-07-10T14:09:08.369Z,4.43
2018-07-10T14:11:36.041Z,5.97
2018-07-10T14:14:04.296Z,4.90
2018-07-10T14:16:32.190Z,4.77
2018-07-10T14:18:59.995Z,5.83
2018-07-10T14:21:27.699Z,6.00
2018-07-10T14:23:55.473Z,6.90
2018-07-10T14:26:23.296Z,6.30
2018-07-10T14:28:51.036Z,6.80
2018-07-10T14:31:18.864Z,6.07
2018-07-10T14:33:46.610Z,7.53
2018-07-10T14:36:14.510Z,8.33
2018-07-10T14:38:42.710Z,8.70
2018-07-10T14:41:10.802Z,6.97
2018-07-10T14:43:42.888Z,7.33
2018-07-10T14:46:14.233Z,8.23
2018-07-10T14:48:52.554Z,8.20
2018-07-10T14:51:28.338Z,7.60
2018-07-10T14:53:56.077Z,8.50
2018-07-10T14:56:23.939Z,8.60
2018-07-10T14:58:51.689Z,8.57
2018-07-10T15:01:20.305Z,8.13
2018-07-10T15:03:47.947Z,6.97
2018-07-10T15:06:15.521Z,7.63
2018-07-10T15:08:43.201Z,7.03
2018-07-10T15:11:11.155Z,7.70
2018-07-10T15:13:56.402Z,7.97
2018-07-10T15:16:24.451Z,7.77
2018-07-10T15:18:52.687Z,8.63
2018-07-10T15:21:21.989Z,8.97
2018-07-10T15:23:49.717Z,9.63
2018-07-10T15:26:17.401Z,9.40
2018-07-10T15:28:45.079Z,10.07
2018-07-10T15:31:12.817Z,9.07
2018-07-10T15:33:40.575Z,9.07
2018-07-10T15:36:08.372Z,10.30
2018-07-10T15:38:36.659Z,9.03
2018-07-10T15:41:04.430Z,9.30
2018-07-10T15:43:32.226Z,8.73
2018-07-10T15:46:00.162Z,8.70
2018-07-10T15:48:27.933Z,9.00
2018-07-10T15:50:55.755Z,9.63
2018-07-10T15:53:23.478Z,9.20
2018-07-10T15:55:51.080Z,9.30
2018-07-10T15:58:18.802Z,9.43
2018-07-10T16:00:46.510Z,8.70
2018-07-10T16:03:14.339Z,9.07
2018-07-10T16:05:42.746Z,9.70
2018-07-10T16:08:19.662Z,8.33
2018-07-10T16:10:53.300Z,9.57
2018-07-10T16:13:22.012Z,10.23
2018-07-10T16:15:53.608Z,10.50
2018-07-10T16:18:23.548Z,10.17
2018-07-10T16:20:56.261Z,9.47
2018-07-10T16:23:23.948Z,9.97
2018-07-10T16:25:58.510Z,10.90
2018-07-10T16:28:26.286Z,10.60
2018-07-10T16:30:54.367Z,9.90
2018-07-10T16:33:32.459Z,9.80
2018-07-10T16:36:02.548Z,9.20
2018-07-10T16:38:30.886Z,9.30
2018-07-10T16:41:05.283Z,10.10
2018-07-10T16:43:32.968Z,8.70
2018-07-10T16:46:02.023Z,9.87
2018-07-10T16:48:40.962Z,9.67
2018-07-10T16:52:28.197Z,10.13
2018-07-10T16:54:55.917Z,9.73
2018-07-10T16:57:23.841Z,9.93
2018-07-10T16:59:51.610Z,9.30
2018-07-10T17:02:19.315Z,9.93
2018-07-10T17:04:47.387Z,10.70
2018-07-10T17:07:15.913Z,10.80
2018-07-10T17:09:43.759Z,11.10
2018-07-10T17:12:11.483Z,11.70
2018-07-10T17:14:40.756Z,12.30
2018-07-10T17:17:14.597Z,16.53
2018-07-10T17:19:42.645Z,12.90
2018-07-10T17:22:10.421Z,12.10
2018-07-10T17:24:38.309Z,12.00
2018-07-10T17:27:06.952Z,11.00
2018-07-10T17:29:34.921Z,11.83
2018-07-10T17:32:02.681Z,12.80
2018-07-10T17:34:30.762Z,11.97
2018-07-10T17:36:58.739Z,12.73
2018-07-10T17:39:26.720Z,12.07
2018-07-10T17:41:54.561Z,12.80
2018-07-10T17:44:22.533Z,12.10
2018-07-10T17:46:50.372Z,10.30
2018-07-10T17:49:18.429Z,10.73
2018-07-10T17:51:46.885Z,11.10
2018-07-10T17:54:14.781Z,12.37
2018-07-10T17:56:42.526Z,14.33
2018-07-10T17:59:10.211Z,19.70
2018-07-10T18:01:38.042Z,11.80
2018-07-10T18:04:06.464Z,13.57
2018-07-10T18:06:34.349Z,13.20
2018-07-10T18:09:02.673Z,13.03
2018-07-10T18:11:30.411Z,13.33
2018-07-10T18:13:58.257Z,11.70
2018-07-10T18:16:31.982Z,12.10
2018-07-10T18:18:59.762Z,12.67
2018-07-10T18:21:27.660Z,12.37
2018-07-10T18:23:55.437Z,10.40
2018-07-10T18:26:23.299Z,10.10
2018-07-10T18:28:51.024Z,10.10
2018-07-10T18:31:18.901Z,11.57
2018-07-10T18:33:46.636Z,10.63
2018-07-10T18:36:14.406Z,10.53
2018-07-10T18:38:43.226Z,10.10
2018-07-10T18:41:11.074Z,10.60
2018-07-10T18:43:38.752Z,11.10
2018-07-10T18:46:06.496Z,10.60
2018-07-10T18:48:34.312Z,11.40
2018-07-10T18:51:02.174Z,11.93
2018-07-10T18:53:29.913Z,12.00
2018-07-10T18:55:57.800Z,12.30
2018-07-10T18:58:38.778Z,13.70
2018-07-10T19:01:18.483Z,14.73
2018-07-10T19:03:48.433Z,16.30
2018-07-10T19:06:19.887Z,15.07
2018-07-10T19:08:48.088Z,14.83
2018-07-10T19:11:20.599Z,16.00
2018-07-10T19:13:49.045Z,15.83
2018-07-10T19:16:17.419Z,17.57
2018-07-10T19:18:48.829Z,17.23
2018-07-10T19:21:23.836Z,17.40
2018-07-10T19:23:52.582Z,18.57
2018-07-10T19:26:24.504Z,18.77
2018-07-10T19:29:04.097Z,19.00
2018-07-10T19:31:32.371Z,19.13
2018-07-10T19:34:00.955Z,19.90
2018-07-10T19:36:28.752Z,20.53
2018-07-10T19:38:56.676Z,18.93
2018-07-10T19:41:24.859Z,22.00
2018-07-10T19:43:52.760Z,22.10
2018-07-10T19:46:20.682Z,22.20
2018-07-10T19:48:50.684Z,23.40
2018-07-10T19:51:25.836Z,23.90
2018-07-10T19:54:06.012Z,25.77
2018-07-10T19:56:34.891Z,22.10
2018-07-10T19:59:06.296Z,22.77
2018-07-10T20:01:48.226Z,24.70
2018-07-10T20:04:28.920Z,25.00
2018-07-10T20:07:08.273Z,27.13
2018-07-10T20:10:17.867Z,23.87
2018-07-10T20:12:54.809Z,26.40
2018-07-10T20:15:35.437Z,27.50
2018-07-10T20:18:14.801Z,27.50
2018-07-10T20:20:51.610Z,27.43
2018-07-10T20:23:39.649Z,28.10
2018-07-10T20:27:01.811Z,28.00
2018-07-10T20:29:40.242Z,27.93
2018-07-10T20:32:09.357Z,29.10
2018-07-10T20:34:54.201Z,27.97
2018-07-10T20:37:30.221Z,29.43
2018-07-10T20:39:58.130Z,27.20
2018-07-10T20:42:33.107Z,28.90
2018-07-10T20:45:05.836Z,32.70
2018-07-10T20:47:54.183Z,27.33
2018-07-10T20:50:31.531Z,29.70
2018-07-10T20:53:08.697Z,30.10
2018-07-10T20:55:43.993Z,28.07
2018-07-10T20:58:16.267Z,31.63
2018-07-10T21:00:59.799Z,29.20
2018-07-10T21:04:06.122Z,28.47
2018-07-10T21:06:49.904Z,26.80
2018-07-10T21:09:20.318Z,27.20
2018-07-10T21:12:02.989Z,26.10
2018-07-10T21:15:13.998Z,27.13
2018-07-10T21:18:11.259Z,25.63
2018-07-10T21:20:58.526Z,27.67
2018-07-10T21:24:35.688Z,27.70
2018-07-10T21:27:07.066Z,28.60
2018-07-10T21:29:57.887Z,29.83
2018-07-10T21:32:36.251Z,32.20
2018-07-10T21:35:08.873Z,32.00
2018-07-10T21:38:18.733Z,32.67
2018-07-10T21:43:07.915Z,33.70
2018-07-10T21:46:55.020Z,31.27
2018-07-10T21:49:39.879Z,39.70
2018-07-10T21:52:07.687Z,36.27
2018-07-10T21:54:35.437Z,37.93
2018-07-10T21:57:03.344Z,38.10
2018-07-10T21:59:32.693Z,37.80
2018-07-10T22:02:01.575Z,36.37
2018-07-10T22:04:30.619Z,38.53
2018-07-10T22:06:59.847Z,37.70
2018-07-10T22:09:32.343Z,43.90
2018-07-10T22:12:05.263Z,37.40
2018-07-10T22:14:32.984Z,39.00
2018-07-10T22:17:02.423Z,40.97
2018-07-10T22:19:32.348Z,38.40
2018-07-10T22:21:59.984Z,36.33
2018-07-10T22:24:28.414Z,35.07
2018-07-10T22:26:56.742Z,33.83
2018-07-10T22:29:30.036Z,32.80
2018-07-10T22:32:06.645Z,31.97
2018-07-10T22:34:34.634Z,34.83
2018-07-10T22:37:03.266Z,36.77
2018-07-10T22:39:30.988Z,35.13
2018-07-10T22:42:00.635Z,34.67
2018-07-10T22:44:32.093Z,31.43
2018-07-10T22:46:59.813Z,31.27
2018-07-10T22:49:27.658Z,32.73
2018-07-10T22:51:58.465Z,30.70
2018-07-10T22:54:26.809Z,31.43
2018-07-10T22:56:54.565Z,32.03
2018-07-10T22:59:22.547Z,32.63
2018-07-10T23:01:50.251Z,32.73
2018-07-10T23:04:19.306Z,33.23
2018-07-10T23:06:47.021Z,34.43
2018-07-10T23:09:14.741Z,32.77
2018-07-10T23:11:42.545Z,34.60
2018-07-10T23:14:10.261Z,33.13
2018-07-10T23:16:39.280Z,35.43
2018-07-10T23:19:07.233Z,34.10
2018-07-10T23:21:36.832Z,38.43
2018-07-10T23:24:04.869Z,36.63
2018-07-10T23:26:33.501Z,36.60
2018-07-10T23:29:01.932Z,34.70
2018-07-10T23:31:30.179Z,32.97
2018-07-10T23:34:07.229Z,35.20
2018-07-10T23:36:35.697Z,31.83
2018-07-10T23:39:06.868Z,30.37
2018-07-10T23:42:09.341Z,31.27
2018-07-10T23:44:42.672Z,33.70
2018-07-10T23:47:22.324Z,37.03
2018-07-10T23:49:57.158Z,39.07
2018-07-10T23:54:12.162Z,43.63
2018-07-10T23:56:39.850Z,39.87
2018-07-10T23:59:07.563Z,42.47
